sensor_id;sensor_type;location;lat;lon;timestamp;P1;durP1;ratioP1;P2;durP2;ratioP2
22103;SDS011;11218;48.886;9.426;2023-04-03T00:01:17;27.60;;;6.65;;
22103;SDS011;11218;48.886;9.426;2023-04-03T00:03:46;21.20;;;5.75;;
22103;SDS011;11218;48.886;9.426;2023-04-03T00:06:14;16.20;;;5.43;;
22103;SDS011;11218;48.886;9.426;2023-04-03T00:08:42;23.92;;;6.07;;
22103;SDS011;11218;48.886;9.426;2023-04-03T00:11:11;22.95;;;5.97;;
22103;SDS011;11218;48.886;9.426;2023-04-03T00:13:39;20.88;;;5.72;;
22103;SDS011;11218;48.886;9.426;2023-04-03T00:16:09;27.02;;;6.68;;
22103;SDS011;11218;48.886;9.426;2023-04-03T00:18:39;18.23;;;5.22;;
22103;SDS011;11218;48.886;9.426;2023-04-03T00:21:08;21.83;;;6.00;;
22103;SDS011;11218;48.886;9.426;2023-04-03T00:23:39;24.48;;;6.32;;
22103;SDS011;11218;48.886;9.426;2023-04-03T00:26:07;25.25;;;6.28;;
22103;SDS011;11218;48.886;9.426;2023-04-03T00:28:36;21.63;;;6.18;;
22103;SDS011;11218;48.886;9.426;2023-04-03T00:31:04;22.40;;;6.07;;
22103;SDS011;11218;48.886;9.426;2023-04-03T00:33:33;23.27;;;6.05;;
22103;SDS011;11218;48.886;9.426;2023-04-03T00:36:05;25.92;;;6.82;;
22103;SDS011;11218;48.886;9.426;2023-04-03T00:38:34;26.35;;;6.68;;
22103;SDS011;11218;48.886;9.426;2023-04-03T00:41:02;22.70;;;6.10;;
22103;SDS011;11218;48.886;9.426;2023-04-03T00:43:31;24.05;;;5.93;;
22103;SDS011;11218;48.886;9.426;2023-04-03T00:45:59;23.33;;;6.13;;
22103;SDS011;11218;48.886;9.426;2023-04-03T00:48:28;23.98;;;6.45;;
22103;SDS011;11218;48.886;9.426;2023-04-03T00:51:01;26.90;;;7.00;;
22103;SDS011;11218;48.886;9.426;2023-04-03T00:53:32;24.38;;;6.80;;
22103;SDS011;11218;48.886;9.426;2023-04-03T00:56:03;19.55;;;5.75;;
22103;SDS011;11218;48.886;9.426;2023-04-03T00:58:37;19.58;;;5.97;;
22103;SDS011;11218;48.886;9.426;2023-04-03T01:01:11;26.83;;;6.50;;
22103;SDS011;11218;48.886;9.426;2023-04-03T01:03:43;20.55;;;5.60;;
22103;SDS011;11218;48.886;9.426;2023-04-03T01:06:13;24.45;;;5.75;;
22103;SDS011;11218;48.886;9.426;2023-04-03T01:08:44;25.33;;;6.22;;
22103;SDS011;11218;48.886;9.426;2023-04-03T01:11:13;23.58;;;6.30;;
22103;SDS011;11218;48.886;9.426;2023-04-03T01:13:41;25.75;;;6.18;;
22103;SDS011;11218;48.886;9.426;2023-04-03T01:16:10;23.15;;;6.20;;
22103;SDS011;11218;48.886;9.426;2023-04-03T01:18:38;23.13;;;6.15;;
22103;SDS011;11218;48.886;9.426;2023-04-03T01:24:40;18.60;;;5.65;;
22103;SDS011;11218;48.886;9.426;2023-04-03T01:27:09;21.58;;;5.82;;
22103;SDS011;11218;48.886;9.426;2023-04-03T01:29:38;24.55;;;6.50;;
22103;SDS011;11218;48.886;9.426;2023-04-03T01:32:11;25.55;;;6.53;;
22103;SDS011;11218;48.886;9.426;2023-04-03T01:34:39;25.48;;;6.75;;
22103;SDS011;11218;48.886;9.426;2023-04-03T01:37:08;28.38;;;6.80;;
22103;SDS011;11218;48.886;9.426;2023-04-03T01:39:36;24.38;;;6.43;;
22103;SDS011;11218;48.886;9.426;2023-04-03T01:42:04;16.45;;;4.78;;
22103;SDS011;11218;48.886;9.426;2023-04-03T01:44:32;23.10;;;5.95;;
22103;SDS011;11218;48.886;9.426;2023-04-03T01:47:01;23.55;;;5.82;;
22103;SDS011;11218;48.886;9.426;2023-04-03T01:49:30;17.83;;;5.13;;
22103;SDS011;11218;48.886;9.426;2023-04-03T01:51:58;19.77;;;5.45;;
22103;SDS011;11218;48.886;9.426;2023-04-03T01:54:26;31.77;;;8.57;;
22103;SDS011;11218;48.886;9.426;2023-04-03T01:56:54;20.80;;;5.57;;
22103;SDS011;11218;48.886;9.426;2023-04-03T01:59:22;21.10;;;5.78;;
22103;SDS011;11218;48.886;9.426;2023-04-03T02:01:50;23.88;;;6.38;;
22103;SDS011;11218;48.886;9.426;2023-04-03T02:04:18;20.67;;;5.53;;
22103;SDS011;11218;48.886;9.426;2023-04-03T02:06:48;23.30;;;6.15;;
22103;SDS011;11218;48.886;9.426;2023-04-03T02:09:16;22.60;;;6.18;;
22103;SDS011;11218;48.886;9.426;2023-04-03T02:11:44;25.15;;;6.20;;
22103;SDS011;11218;48.886;9.426;2023-04-03T02:14:12;20.58;;;5.90;;
22103;SDS011;11218;48.886;9.426;2023-04-03T02:16:41;24.10;;;6.05;;
22103;SDS011;11218;48.886;9.426;2023-04-03T02:19:09;24.15;;;6.28;;
22103;SDS011;11218;48.886;9.426;2023-04-03T02:21:37;24.70;;;6.10;;
22103;SDS011;11218;48.886;9.426;2023-04-03T02:24:07;22.27;;;5.80;;
22103;SDS011;11218;48.886;9.426;2023-04-03T02:26:35;23.73;;;6.25;;
22103;SDS011;11218;48.886;9.426;2023-04-03T02:29:03;24.08;;;6.25;;
22103;SDS011;11218;48.886;9.426;2023-04-03T02:31:32;23.10;;;5.95;;
22103;SDS011;11218;48.886;9.426;2023-04-03T02:34:00;22.70;;;5.95;;
22103;SDS011;11218;48.886;9.426;2023-04-03T02:36:28;23.50;;;6.03;;
22103;SDS011;11218;48.886;9.426;2023-04-03T02:38:58;19.20;;;5.32;;
22103;SDS011;11218;48.886;9.426;2023-04-03T02:41:27;27.85;;;6.32;;
22103;SDS011;11218;48.886;9.426;2023-04-03T02:44:01;19.05;;;5.30;;
22103;SDS011;11218;48.886;9.426;2023-04-03T02:46:29;23.00;;;5.95;;
22103;SDS011;11218;48.886;9.426;2023-04-03T02:48:57;23.75;;;6.35;;
22103;SDS011;11218;48.886;9.426;2023-04-03T02:51:26;23.85;;;5.90;;
22103;SDS011;11218;48.886;9.426;2023-04-03T02:53:54;16.73;;;5.20;;
22103;SDS011;11218;48.886;9.426;2023-04-03T02:56:22;24.58;;;6.07;;
22103;SDS011;11218;48.886;9.426;2023-04-03T02:58:52;29.40;;;7.15;;
22103;SDS011;11218;48.886;9.426;2023-04-03T03:01:20;26.20;;;6.43;;
22103;SDS011;11218;48.886;9.426;2023-04-03T03:03:48;18.17;;;5.07;;
22103;SDS011;11218;48.886;9.426;2023-04-03T03:06:17;27.65;;;6.45;;
22103;SDS011;11218;48.886;9.426;2023-04-03T03:08:45;24.55;;;6.32;;
22103;SDS011;11218;48.886;9.426;2023-04-03T03:11:13;24.70;;;6.13;;
22103;SDS011;11218;48.886;9.426;2023-04-03T03:13:41;24.98;;;5.85;;
22103;SDS011;11218;48.886;9.426;2023-04-03T03:16:10;24.48;;;6.05;;
22103;SDS011;11218;48.886;9.426;2023-04-03T03:18:39;15.80;;;5.20;;
22103;SDS011;11218;48.886;9.426;2023-04-03T03:21:08;28.27;;;6.63;;
22103;SDS011;11218;48.886;9.426;2023-04-03T03:23:37;28.17;;;6.40;;
22103;SDS011;11218;48.886;9.426;2023-04-03T03:26:07;22.67;;;5.93;;
22103;SDS011;11218;48.886;9.426;2023-04-03T03:28:38;19.08;;;5.35;;
22103;SDS011;11218;48.886;9.426;2023-04-03T03:31:08;19.42;;;5.43;;
22103;SDS011;11218;48.886;9.426;2023-04-03T03:33:38;28.00;;;6.80;;
22103;SDS011;11218;48.886;9.426;2023-04-03T03:36:06;22.58;;;5.63;;
22103;SDS011;11218;48.886;9.426;2023-04-03T03:38:34;16.73;;;5.25;;
22103;SDS011;11218;48.886;9.426;2023-04-03T03:41:03;17.77;;;4.97;;
22103;SDS011;11218;48.886;9.426;2023-04-03T03:43:31;10.65;;;4.18;;
22103;SDS011;11218;48.886;9.426;2023-04-03T03:45:59;15.38;;;4.43;;
22103;SDS011;11218;48.886;9.426;2023-04-03T03:48:27;9.45;;;3.85;;
22103;SDS011;11218;48.886;9.426;2023-04-03T03:50:56;17.55;;;4.97;;
22103;SDS011;11218;48.886;9.426;2023-04-03T03:53:25;10.25;;;3.92;;
22103;SDS011;11218;48.886;9.426;2023-04-03T03:55:53;11.52;;;4.63;;
22103;SDS011;11218;48.886;9.426;2023-04-03T03:58:21;10.70;;;4.35;;
22103;SDS011;11218;48.886;9.426;2023-04-03T04:00:49;17.60;;;5.18;;
22103;SDS011;11218;48.886;9.426;2023-04-03T04:03:17;8.25;;;3.42;;
22103;SDS011;11218;48.886;9.426;2023-04-03T04:05:45;11.18;;;4.38;;
22103;SDS011;11218;48.886;9.426;2023-04-03T04:08:15;10.40;;;4.35;;
22103;SDS011;11218;48.886;9.426;2023-04-03T04:10:42;8.45;;;3.45;;
22103;SDS011;11218;48.886;9.426;2023-04-03T04:13:10;13.32;;;4.38;;
22103;SDS011;11218;48.886;9.426;2023-04-03T04:15:38;12.05;;;4.22;;
22103;SDS011;11218;48.886;9.426;2023-04-03T04:18:06;6.93;;;3.15;;
22103;SDS011;11218;48.886;9.426;2023-04-03T04:20:34;10.70;;;3.83;;
22103;SDS011;11218;48.886;9.426;2023-04-03T04:23:02;11.65;;;3.90;;
22103;SDS011;11218;48.886;9.426;2023-04-03T04:25:32;21.52;;;5.97;;
22103;SDS011;11218;48.886;9.426;2023-04-03T04:28:00;14.80;;;5.30;;
22103;SDS011;11218;48.886;9.426;2023-04-03T04:30:28;15.95;;;4.75;;
22103;SDS011;11218;48.886;9.426;2023-04-03T04:32:57;8.98;;;3.80;;
22103;SDS011;11218;48.886;9.426;2023-04-03T04:35:25;7.07;;;3.72;;
22103;SDS011;11218;48.886;9.426;2023-04-03T04:37:53;15.52;;;4.55;;
22103;SDS011;11218;48.886;9.426;2023-04-03T04:40:21;12.95;;;3.80;;
22103;SDS011;11218;48.886;9.426;2023-04-03T04:42:51;9.10;;;3.85;;
22103;SDS011;11218;48.886;9.426;2023-04-03T04:45:20;8.75;;;3.97;;
22103;SDS011;11218;48.886;9.426;2023-04-03T04:47:47;12.13;;;4.43;;
22103;SDS011;11218;48.886;9.426;2023-04-03T04:50:18;9.88;;;4.15;;
22103;SDS011;11218;48.886;9.426;2023-04-03T04:52:46;9.43;;;3.67;;
22103;SDS011;11218;48.886;9.426;2023-04-03T04:55:14;16.48;;;5.18;;
22103;SDS011;11218;48.886;9.426;2023-04-03T04:57:42;18.70;;;5.28;;
22103;SDS011;11218;48.886;9.426;2023-04-03T05:00:13;14.93;;;5.00;;
22103;SDS011;11218;48.886;9.426;2023-04-03T05:02:43;20.60;;;5.68;;
22103;SDS011;11218;48.886;9.426;2023-04-03T05:05:11;13.90;;;5.93;;
22103;SDS011;11218;48.886;9.426;2023-04-03T05:07:39;8.48;;;3.80;;
22103;SDS011;11218;48.886;9.426;2023-04-03T05:10:08;5.97;;;3.58;;
22103;SDS011;11218;48.886;9.426;2023-04-03T05:12:37;14.13;;;5.03;;
22103;SDS011;11218;48.886;9.426;2023-04-03T05:15:05;7.20;;;4.05;;
22103;SDS011;11218;48.886;9.426;2023-04-03T05:17:36;9.52;;;4.10;;
22103;SDS011;11218;48.886;9.426;2023-04-03T05:20:05;6.43;;;3.83;;
22103;SDS011;11218;48.886;9.426;2023-04-03T05:22:34;11.43;;;4.35;;
22103;SDS011;11218;48.886;9.426;2023-04-03T05:25:03;8.55;;;3.83;;
22103;SDS011;11218;48.886;9.426;2023-04-03T05:27:32;11.82;;;4.25;;
22103;SDS011;11218;48.886;9.426;2023-04-03T05:30:00;6.80;;;4.18;;
22103;SDS011;11218;48.886;9.426;2023-04-03T05:32:28;10.43;;;4.10;;
22103;SDS011;11218;48.886;9.426;2023-04-03T05:34:58;8.80;;;4.57;;
22103;SDS011;11218;48.886;9.426;2023-04-03T05:37:26;6.43;;;3.45;;
22103;SDS011;11218;48.886;9.426;2023-04-03T05:39:55;8.48;;;3.92;;
22103;SDS011;11218;48.886;9.426;2023-04-03T05:42:23;10.88;;;4.25;;
22103;SDS011;11218;48.886;9.426;2023-04-03T05:44:51;8.38;;;4.15;;
22103;SDS011;11218;48.886;9.426;2023-04-03T05:47:19;6.50;;;3.78;;
22103;SDS011;11218;48.886;9.426;2023-04-03T05:49:47;11.27;;;4.65;;
22103;SDS011;11218;48.886;9.426;2023-04-03T05:52:20;10.60;;;4.07;;
22103;SDS011;11218;48.886;9.426;2023-04-03T05:54:50;6.78;;;3.58;;
22103;SDS011;11218;48.886;9.426;2023-04-03T05:57:19;12.77;;;4.18;;
22103;SDS011;11218;48.886;9.426;2023-04-03T05:59:47;14.95;;;5.93;;
22103;SDS011;11218;48.886;9.426;2023-04-03T06:02:17;9.50;;;4.22;;
22103;SDS011;11218;48.886;9.426;2023-04-03T06:04:47;11.93;;;4.65;;
22103;SDS011;11218;48.886;9.426;2023-04-03T06:07:18;16.67;;;5.13;;
22103;SDS011;11218;48.886;9.426;2023-04-03T06:09:49;11.80;;;4.43;;
22103;SDS011;11218;48.886;9.426;2023-04-03T06:12:19;9.52;;;4.57;;
22103;SDS011;11218;48.886;9.426;2023-04-03T06:14:47;8.93;;;3.88;;
22103;SDS011;11218;48.886;9.426;2023-04-03T06:17:16;12.60;;;4.80;;
22103;SDS011;11218;48.886;9.426;2023-04-03T06:19:45;14.60;;;4.88;;
22103;SDS011;11218;48.886;9.426;2023-04-03T06:22:13;13.20;;;4.65;;
22103;SDS011;11218;48.886;9.426;2023-04-03T06:24:43;8.77;;;4.30;;
22103;SDS011;11218;48.886;9.426;2023-04-03T06:27:11;11.10;;;4.70;;
22103;SDS011;11218;48.886;9.426;2023-04-03T06:29:39;15.45;;;5.28;;
22103;SDS011;11218;48.886;9.426;2023-04-03T06:32:07;13.05;;;5.50;;
22103;SDS011;11218;48.886;9.426;2023-04-03T06:34:35;11.20;;;4.50;;
22103;SDS011;11218;48.886;9.426;2023-04-03T06:37:03;11.30;;;4.50;;
22103;SDS011;11218;48.886;9.426;2023-04-03T06:39:31;11.95;;;5.00;;
22103;SDS011;11218;48.886;9.426;2023-04-03T06:42:00;14.50;;;5.05;;
22103;SDS011;11218;48.886;9.426;2023-04-03T06:44:28;27.08;;;6.28;;
22103;SDS011;11218;48.886;9.426;2023-04-03T06:46:56;30.17;;;6.57;;
22103;SDS011;11218;48.886;9.426;2023-04-03T06:49:24;16.02;;;4.97;;
22103;SDS011;11218;48.886;9.426;2023-04-03T06:51:52;20.35;;;5.32;;
22103;SDS011;11218;48.886;9.426;2023-04-03T06:54:20;20.73;;;5.55;;
22103;SDS011;11218;48.886;9.426;2023-04-03T06:56:49;13.93;;;4.53;;
22103;SDS011;11218;48.886;9.426;2023-04-03T06:59:19;9.30;;;4.13;;
22103;SDS011;11218;48.886;9.426;2023-04-03T07:01:47;6.13;;;3.70;;
22103;SDS011;11218;48.886;9.426;2023-04-03T07:04:15;18.70;;;5.65;;
22103;SDS011;11218;48.886;9.426;2023-04-03T07:06:43;14.82;;;4.95;;
22103;SDS011;11218;48.886;9.426;2023-04-03T07:09:11;24.15;;;6.63;;
22103;SDS011;11218;48.886;9.426;2023-04-03T07:11:40;23.80;;;6.93;;
22103;SDS011;11218;48.886;9.426;2023-04-03T07:14:08;17.67;;;5.80;;
22103;SDS011;11218;48.886;9.426;2023-04-03T07:16:37;17.73;;;5.55;;
22103;SDS011;11218;48.886;9.426;2023-04-03T07:19:08;19.55;;;6.47;;
22103;SDS011;11218;48.886;9.426;2023-04-03T07:21:36;17.52;;;5.95;;
22103;SDS011;11218;48.886;9.426;2023-04-03T07:24:04;23.10;;;5.82;;
22103;SDS011;11218;48.886;9.426;2023-04-03T07:26:36;10.95;;;4.32;;
22103;SDS011;11218;48.886;9.426;2023-04-03T07:29:04;11.52;;;5.13;;
22103;SDS011;11218;48.886;9.426;2023-04-03T07:31:33;9.68;;;4.25;;
22103;SDS011;11218;48.886;9.426;2023-04-03T07:34:02;13.07;;;4.78;;
22103;SDS011;11218;48.886;9.426;2023-04-03T07:36:31;6.28;;;3.70;;
22103;SDS011;11218;48.886;9.426;2023-04-03T07:39:00;8.25;;;3.92;;
22103;SDS011;11218;48.886;9.426;2023-04-03T07:41:28;46.70;;;8.98;;
22103;SDS011;11218;48.886;9.426;2023-04-03T07:43:56;45.22;;;9.25;;
22103;SDS011;11218;48.886;9.426;2023-04-03T07:46:24;42.42;;;8.75;;
22103;SDS011;11218;48.886;9.426;2023-04-03T07:48:52;44.50;;;9.10;;
22103;SDS011;11218;48.886;9.426;2023-04-03T07:51:24;35.70;;;7.72;;
22103;SDS011;11218;48.886;9.426;2023-04-03T07:53:54;33.58;;;7.38;;
22103;SDS011;11218;48.886;9.426;2023-04-03T07:56:22;28.45;;;6.57;;
22103;SDS011;11218;48.886;9.426;2023-04-03T07:58:51;32.25;;;6.88;;
22103;SDS011;11218;48.886;9.426;2023-04-03T08:01:21;27.23;;;6.35;;
22103;SDS011;11218;48.886;9.426;2023-04-03T08:03:49;25.27;;;5.88;;
22103;SDS011;11218;48.886;9.426;2023-04-03T08:06:17;10.98;;;4.20;;
22103;SDS011;11218;48.886;9.426;2023-04-03T08:09:04;15.25;;;5.25;;
22103;SDS011;11218;48.886;9.426;2023-04-03T08:11:32;14.18;;;4.93;;
22103;SDS011;11218;48.886;9.426;2023-04-03T08:14:02;12.90;;;4.63;;
22103;SDS011;11218;48.886;9.426;2023-04-03T08:16:30;20.00;;;5.82;;
22103;SDS011;11218;48.886;9.426;2023-04-03T08:18:58;24.25;;;6.20;;
22103;SDS011;11218;48.886;9.426;2023-04-03T08:21:27;15.77;;;4.65;;
22103;SDS011;11218;48.886;9.426;2023-04-03T08:23:55;19.00;;;5.60;;
22103;SDS011;11218;48.886;9.426;2023-04-03T08:26:25;26.80;;;6.68;;
22103;SDS011;11218;48.886;9.426;2023-04-03T08:28:53;29.83;;;6.95;;
22103;SDS011;11218;48.886;9.426;2023-04-03T08:31:21;33.97;;;7.43;;
22103;SDS011;11218;48.886;9.426;2023-04-03T08:33:49;25.00;;;6.45;;
22103;SDS011;11218;48.886;9.426;2023-04-03T08:36:18;25.90;;;5.97;;
22103;SDS011;11218;48.886;9.426;2023-04-03T08:38:48;27.92;;;6.50;;
22103;SDS011;11218;48.886;9.426;2023-04-03T08:41:20;27.38;;;6.80;;
22103;SDS011;11218;48.886;9.426;2023-04-03T08:44:07;35.60;;;6.70;;
22103;SDS011;11218;48.886;9.426;2023-04-03T08:46:45;29.38;;;6.88;;
22103;SDS011;11218;48.886;9.426;2023-04-03T08:49:24;26.00;;;6.68;;
22103;SDS011;11218;48.886;9.426;2023-04-03T08:51:55;24.77;;;6.13;;
22103;SDS011;11218;48.886;9.426;2023-04-03T08:54:28;26.67;;;6.65;;
22103;SDS011;11218;48.886;9.426;2023-04-03T08:57:00;31.00;;;7.35;;
22103;SDS011;11218;48.886;9.426;2023-04-03T08:59:35;22.98;;;5.60;;
22103;SDS011;11218;48.886;9.426;2023-04-03T09:02:13;19.02;;;5.78;;
22103;SDS011;11218;48.886;9.426;2023-04-03T09:04:51;11.90;;;4.38;;
22103;SDS011;11218;48.886;9.426;2023-04-03T09:07:22;11.05;;;3.92;;
22103;SDS011;11218;48.886;9.426;2023-04-03T09:09:59;7.82;;;3.97;;
22103;SDS011;11218;48.886;9.426;2023-04-03T09:12:32;15.77;;;4.03;;
22103;SDS011;11218;48.886;9.426;2023-04-03T09:15:08;28.35;;;6.70;;
22103;SDS011;11218;48.886;9.426;2023-04-03T09:17:51;16.90;;;4.80;;
22103;SDS011;11218;48.886;9.426;2023-04-03T09:20:29;17.80;;;5.70;;
22103;SDS011;11218;48.886;9.426;2023-04-03T09:23:10;24.80;;;6.38;;
22103;SDS011;11218;48.886;9.426;2023-04-03T09:25:45;10.63;;;4.07;;
22103;SDS011;11218;48.886;9.426;2023-04-03T09:28:14;10.57;;;4.35;;
22103;SDS011;11218;48.886;9.426;2023-04-03T09:30:43;13.75;;;4.63;;
22103;SDS011;11218;48.886;9.426;2023-04-03T09:33:12;14.48;;;5.03;;
22103;SDS011;11218;48.886;9.426;2023-04-03T09:35:42;10.57;;;4.38;;
22103;SDS011;11218;48.886;9.426;2023-04-03T09:38:15;10.57;;;4.13;;
22103;SDS011;11218;48.886;9.426;2023-04-03T09:40:46;18.70;;;4.53;;
22103;SDS011;11218;48.886;9.426;2023-04-03T09:43:23;10.20;;;4.43;;
22103;SDS011;11218;48.886;9.426;2023-04-03T09:45:55;12.80;;;4.63;;
22103;SDS011;11218;48.886;9.426;2023-04-03T09:48:52;10.82;;;4.20;;
22103;SDS011;11218;48.886;9.426;2023-04-03T09:51:35;14.05;;;4.63;;
22103;SDS011;11218;48.886;9.426;2023-04-03T09:54:23;10.23;;;4.20;;
22103;SDS011;11218;48.886;9.426;2023-04-03T09:56:53;13.27;;;4.85;;
22103;SDS011;11218;48.886;9.426;2023-04-03T09:59:23;8.85;;;3.72;;
22103;SDS011;11218;48.886;9.426;2023-04-03T10:01:59;5.75;;;2.85;;
22103;SDS011;11218;48.886;9.426;2023-04-03T10:04:37;13.10;;;4.15;;
22103;SDS011;11218;48.886;9.426;2023-04-03T10:09:55;9.63;;;4.85;;
22103;SDS011;11218;48.886;9.426;2023-04-03T10:12:24;13.73;;;4.68;;
22103;SDS011;11218;48.886;9.426;2023-04-03T10:14:56;9.98;;;4.13;;
22103;SDS011;11218;48.886;9.426;2023-04-03T10:17:30;12.82;;;3.90;;
22103;SDS011;11218;48.886;9.426;2023-04-03T10:20:16;14.90;;;3.85;;
22103;SDS011;11218;48.886;9.426;2023-04-03T10:22:56;11.48;;;4.22;;
22103;SDS011;11218;48.886;9.426;2023-04-03T10:25:40;18.05;;;5.10;;
22103;SDS011;11218;48.886;9.426;2023-04-03T10:28:12;15.52;;;5.63;;
22103;SDS011;11218;48.886;9.426;2023-04-03T10:30:47;14.13;;;5.25;;
22103;SDS011;11218;48.886;9.426;2023-04-03T10:33:29;9.50;;;4.85;;
22103;SDS011;11218;48.886;9.426;2023-04-03T10:36:10;23.30;;;6.25;;
22103;SDS011;11218;48.886;9.426;2023-04-03T10:38:48;12.27;;;4.53;;
22103;SDS011;11218;48.886;9.426;2023-04-03T10:41:24;23.00;;;7.03;;
22103;SDS011;11218;48.886;9.426;2023-04-03T10:44:02;10.82;;;3.47;;
22103;SDS011;11218;48.886;9.426;2023-04-03T10:46:41;10.65;;;4.00;;
22103;SDS011;11218;48.886;9.426;2023-04-03T10:49:17;24.63;;;4.78;;
22103;SDS011;11218;48.886;9.426;2023-04-03T10:51:55;13.48;;;4.70;;
22103;SDS011;11218;48.886;9.426;2023-04-03T10:54:32;26.50;;;6.60;;
22103;SDS011;11218;48.886;9.426;2023-04-03T10:57:04;18.17;;;4.45;;
22103;SDS011;11218;48.886;9.426;2023-04-03T10:59:38;14.48;;;4.68;;
22103;SDS011;11218;48.886;9.426;2023-04-03T11:02:13;15.30;;;6.05;;
22103;SDS011;11218;48.886;9.426;2023-04-03T11:04:49;16.08;;;5.55;;
22103;SDS011;11218;48.886;9.426;2023-04-03T11:07:22;30.35;;;8.70;;
22103;SDS011;11218;48.886;9.426;2023-04-03T11:09:54;18.95;;;5.65;;
22103;SDS011;11218;48.886;9.426;2023-04-03T11:12:26;17.33;;;6.38;;
22103;SDS011;11218;48.886;9.426;2023-04-03T11:15:00;13.65;;;5.80;;
22103;SDS011;11218;48.886;9.426;2023-04-03T11:17:32;23.52;;;15.63;;
22103;SDS011;11218;48.886;9.426;2023-04-03T11:20:06;25.27;;;16.33;;
22103;SDS011;11218;48.886;9.426;2023-04-03T11:22:43;32.20;;;9.65;;
22103;SDS011;11218;48.886;9.426;2023-04-03T11:25:17;47.03;;;17.40;;
22103;SDS011;11218;48.886;9.426;2023-04-03T11:27:49;57.63;;;31.73;;
22103;SDS011;11218;48.886;9.426;2023-04-03T11:30:23;36.63;;;20.33;;
22103;SDS011;11218;48.886;9.426;2023-04-03T11:32:59;49.80;;;32.92;;
22103;SDS011;11218;48.886;9.426;2023-04-03T11:35:43;104.07;;;57.95;;
22103;SDS011;11218;48.886;9.426;2023-04-03T11:38:15;53.65;;;29.25;;
22103;SDS011;11218;48.886;9.426;2023-04-03T11:40:50;78.70;;;31.00;;
22103;SDS011;11218;48.886;9.426;2023-04-03T11:43:22;37.60;;;10.52;;
22103;SDS011;11218;48.886;9.426;2023-04-03T11:45:54;70.80;;;28.00;;
22103;SDS011;11218;48.886;9.426;2023-04-03T11:48:42;59.10;;;15.13;;
22103;SDS011;11218;48.886;9.426;2023-04-03T11:54:35;49.97;;;18.40;;
22103;SDS011;11218;48.886;9.426;2023-04-03T12:06:49;58.75;;;33.25;;
22103;SDS011;11218;48.886;9.426;2023-04-03T12:12:57;34.83;;;8.27;;
22103;SDS011;11218;48.886;9.426;2023-04-03T12:21:23;46.88;;;24.85;;
22103;SDS011;11218;48.886;9.426;2023-04-03T12:24:33;77.53;;;44.75;;
22103;SDS011;11218;48.886;9.426;2023-04-03T12:27:24;36.28;;;19.65;;
22103;SDS011;11218;48.886;9.426;2023-04-03T12:29:58;81.00;;;44.50;;
22103;SDS011;11218;48.886;9.426;2023-04-03T12:32:35;50.55;;;23.77;;
22103;SDS011;11218;48.886;9.426;2023-04-03T12:35:17;56.67;;;34.63;;
22103;SDS011;11218;48.886;9.426;2023-04-03T12:41:23;79.82;;;39.00;;
22103;SDS011;11218;48.886;9.426;2023-04-03T12:44:05;133.25;;;67.85;;
22103;SDS011;11218;48.886;9.426;2023-04-03T12:53:31;54.83;;;12.77;;
22103;SDS011;11218;48.886;9.426;2023-04-03T12:56:23;35.78;;;9.60;;
22103;SDS011;11218;48.886;9.426;2023-04-03T12:59:12;47.55;;;19.67;;
22103;SDS011;11218;48.886;9.426;2023-04-03T13:01:42;91.68;;;46.08;;
22103;SDS011;11218;48.886;9.426;2023-04-03T13:04:11;90.43;;;51.95;;
22103;SDS011;11218;48.886;9.426;2023-04-03T13:06:40;131.73;;;70.22;;
22103;SDS011;11218;48.886;9.426;2023-04-03T13:09:18;158.45;;;80.93;;
22103;SDS011;11218;48.886;9.426;2023-04-03T13:11:51;121.05;;;65.55;;
22103;SDS011;11218;48.886;9.426;2023-04-03T13:14:28;158.00;;;79.15;;
22103;SDS011;11218;48.886;9.426;2023-04-03T13:16:58;129.10;;;69.40;;
22103;SDS011;11218;48.886;9.426;2023-04-03T13:19:30;119.88;;;64.70;;
22103;SDS011;11218;48.886;9.426;2023-04-03T13:21:59;136.38;;;72.20;;
22103;SDS011;11218;48.886;9.426;2023-04-03T13:24:30;137.38;;;71.40;;
22103;SDS011;11218;48.886;9.426;2023-04-03T13:27:04;127.47;;;66.85;;
22103;SDS011;11218;48.886;9.426;2023-04-03T13:29:34;173.10;;;84.45;;
22103;SDS011;11218;48.886;9.426;2023-04-03T13:32:05;150.90;;;78.20;;
22103;SDS011;11218;48.886;9.426;2023-04-03T13:34:36;180.52;;;84.18;;
22103;SDS011;11218;48.886;9.426;2023-04-03T13:37:06;197.20;;;91.32;;
22103;SDS011;11218;48.886;9.426;2023-04-03T13:39:35;155.48;;;77.00;;
22103;SDS011;11218;48.886;9.426;2023-04-03T13:42:16;140.63;;;71.88;;
22103;SDS011;11218;48.886;9.426;2023-04-03T13:47:46;203.30;;;91.47;;
22103;SDS011;11218;48.886;9.426;2023-04-03T13:50:18;172.15;;;82.38;;
22103;SDS011;11218;48.886;9.426;2023-04-03T13:52:49;169.38;;;81.50;;
22103;SDS011;11218;48.886;9.426;2023-04-03T13:55:26;146.25;;;73.93;;
22103;SDS011;11218;48.886;9.426;2023-04-03T14:01:00;216.18;;;97.22;;
22103;SDS011;11218;48.886;9.426;2023-04-03T14:03:40;194.85;;;89.57;;
22103;SDS011;11218;48.886;9.426;2023-04-03T14:06:15;236.10;;;101.75;;
22103;SDS011;11218;48.886;9.426;2023-04-03T14:08:48;168.00;;;81.32;;
22103;SDS011;11218;48.886;9.426;2023-04-03T14:11:22;156.38;;;76.25;;
22103;SDS011;11218;48.886;9.426;2023-04-03T14:14:00;147.68;;;71.95;;
22103;SDS011;11218;48.886;9.426;2023-04-03T14:16:37;193.25;;;89.05;;
22103;SDS011;11218;48.886;9.426;2023-04-03T14:19:14;29.67;;;6.72;;
22103;SDS011;11218;48.886;9.426;2023-04-03T14:21:49;28.85;;;6.68;;
22103;SDS011;11218;48.886;9.426;2023-04-03T14:24:21;30.83;;;6.72;;
22103;SDS011;11218;48.886;9.426;2023-04-03T14:26:53;33.55;;;5.97;;
22103;SDS011;11218;48.886;9.426;2023-04-03T14:29:26;26.90;;;5.75;;
22103;SDS011;11218;48.886;9.426;2023-04-03T14:31:58;45.33;;;8.27;;
22103;SDS011;11218;48.886;9.426;2023-04-03T14:34:41;26.20;;;4.82;;
22103;SDS011;11218;48.886;9.426;2023-04-03T14:37:13;26.95;;;5.80;;
22103;SDS011;11218;48.886;9.426;2023-04-03T14:39:46;23.67;;;5.22;;
22103;SDS011;11218;48.886;9.426;2023-04-03T14:42:18;27.42;;;5.55;;
22103;SDS011;11218;48.886;9.426;2023-04-03T14:44:53;21.35;;;5.10;;
22103;SDS011;11218;48.886;9.426;2023-04-03T14:47:27;37.00;;;7.20;;
22103;SDS011;11218;48.886;9.426;2023-04-03T14:50:02;33.65;;;5.88;;
22103;SDS011;11218;48.886;9.426;2023-04-03T14:52:35;34.35;;;6.90;;
22103;SDS011;11218;48.886;9.426;2023-04-03T14:55:11;23.50;;;5.20;;
22103;SDS011;11218;48.886;9.426;2023-04-03T14:57:43;25.20;;;5.50;;
22103;SDS011;11218;48.886;9.426;2023-04-03T15:00:14;35.70;;;6.65;;
22103;SDS011;11218;48.886;9.426;2023-04-03T15:02:44;31.70;;;6.15;;
22103;SDS011;11218;48.886;9.426;2023-04-03T15:05:15;27.58;;;5.72;;
22103;SDS011;11218;48.886;9.426;2023-04-03T15:07:44;29.92;;;6.07;;
22103;SDS011;11218;48.886;9.426;2023-04-03T15:10:17;33.40;;;6.40;;
22103;SDS011;11218;48.886;9.426;2023-04-03T15:12:47;24.05;;;5.65;;
22103;SDS011;11218;48.886;9.426;2023-04-03T15:15:19;26.40;;;5.53;;
22103;SDS011;11218;48.886;9.426;2023-04-03T15:17:50;20.73;;;4.45;;
22103;SDS011;11218;48.886;9.426;2023-04-03T15:20:22;24.83;;;5.40;;
22103;SDS011;11218;48.886;9.426;2023-04-03T15:22:51;26.48;;;5.35;;
22103;SDS011;11218;48.886;9.426;2023-04-03T15:25:20;22.65;;;6.15;;
22103;SDS011;11218;48.886;9.426;2023-04-03T15:27:48;25.65;;;5.82;;
22103;SDS011;11218;48.886;9.426;2023-04-03T15:30:18;26.85;;;5.45;;
22103;SDS011;11218;48.886;9.426;2023-04-03T15:32:47;29.77;;;5.97;;
22103;SDS011;11218;48.886;9.426;2023-04-03T15:35:15;23.75;;;5.28;;
22103;SDS011;11218;48.886;9.426;2023-04-03T15:37:43;29.27;;;5.70;;
22103;SDS011;11218;48.886;9.426;2023-04-03T15:40:12;27.38;;;5.88;;
22103;SDS011;11218;48.886;9.426;2023-04-03T15:42:40;30.95;;;6.03;;